sensor_id;sensor_type;location;lat;lon;timestamp;temperature;humidity
17146;DHT22;8688;54.444;18.444;2022-12-07T00:00:54;2.30;99.90
17146;DHT22;8688;54.444;18.444;2022-12-07T00:03:21;2.30;99.90
17146;DHT22;8688;54.444;18.444;2022-12-07T00:05:50;2.30;99.90
17146;DHT22;8688;54.444;18.444;2022-12-07T00:08:18;2.30;99.90
17146;DHT22;8688;54.444;18.444;2022-12-07T00:10:45;2.30;99.90
17146;DHT22;8688;54.444;18.444;2022-12-07T00:13:13;2.30;99.90
17146;DHT22;8688;54.444;18.444;2022-12-07T00:15:40;2.30;99.90
17146;DHT22;8688;54.444;18.444;2022-12-07T00:18:07;2.30;99.90
17146;DHT22;8688;54.444;18.444;2022-12-07T00:20:35;2.30;99.90
17146;DHT22;8688;54.444;18.444;2022-12-07T00:23:04;2.30;99.90
17146;DHT22;8688;54.444;18.444;2022-12-07T00:25:31;2.30;99.90
17146;DHT22;8688;54.444;18.444;2022-12-07T00:27:58;2.30;99.90
17146;DHT22;8688;54.444;18.444;2022-12-07T00:30:26;2.30;99.90
17146;DHT22;8688;54.444;18.444;2022-12-07T00:32:53;2.30;99.90
17146;DHT22;8688;54.444;18.444;2022-12-07T00:35:21;2.30;99.90
17146;DHT22;8688;54.444;18.444;2022-12-07T00:37:48;2.30;99.90
17146;DHT22;8688;54.444;18.444;2022-12-07T00:40:17;2.30;99.90
17146;DHT22;8688;54.444;18.444;2022-12-07T00:42:45;2.30;99.90
17146;DHT22;8688;54.444;18.444;2022-12-07T00:45:12;2.30;99.90
17146;DHT22;8688;54.444;18.444;2022-12-07T00:47:39;2.30;99.90
17146;DHT22;8688;54.444;18.444;2022-12-07T00:50:07;2.30;99.90
17146;DHT22;8688;54.444;18.444;2022-12-07T00:52:35;2.30;99.90
17146;DHT22;8688;54.444;18.444;2022-12-07T00:55:03;2.30;99.90
17146;DHT22;8688;54.444;18.444;2022-12-07T00:57:32;2.30;99.90
17146;DHT22;8688;54.444;18.444;2022-12-07T00:59:59;2.30;99.90
17146;DHT22;8688;54.444;18.444;2022-12-07T01:02:26;2.30;99.90
17146;DHT22;8688;54.444;18.444;2022-12-07T01:04:54;2.30;99.90
17146;DHT22;8688;54.444;18.444;2022-12-07T01:07:21;2.30;99.90
17146;DHT22;8688;54.444;18.444;2022-12-07T01:09:49;2.40;99.90
17146;DHT22;8688;54.444;18.444;2022-12-07T01:12:16;2.30;99.90
17146;DHT22;8688;54.444;18.444;2022-12-07T01:14:45;2.40;99.90
17146;DHT22;8688;54.444;18.444;2022-12-07T01:17:12;2.40;99.90
17146;DHT22;8688;54.444;18.444;2022-12-07T01:19:40;2.40;99.90
17146;DHT22;8688;54.444;18.444;2022-12-07T01:22:08;2.40;99.90
17146;DHT22;8688;54.444;18.444;2022-12-07T01:24:36;2.30;99.90
17146;DHT22;8688;54.444;18.444;2022-12-07T01:27:03;2.40;99.90
17146;DHT22;8688;54.444;18.444;2022-12-07T01:29:30;2.40;99.90
17146;DHT22;8688;54.444;18.444;2022-12-07T01:31:59;2.40;99.90
17146;DHT22;8688;54.444;18.444;2022-12-07T01:34:27;2.40;99.90
17146;DHT22;8688;54.444;18.444;2022-12-07T01:36:54;2.40;99.90
17146;DHT22;8688;54.444;18.444;2022-12-07T01:39:22;2.40;99.90
17146;DHT22;8688;54.444;18.444;2022-12-07T01:41:50;2.40;99.90
17146;DHT22;8688;54.444;18.444;2022-12-07T01:44:21;2.40;99.90
17146;DHT22;8688;54.444;18.444;2022-12-07T01:46:50;2.40;99.90
17146;DHT22;8688;54.444;18.444;2022-12-07T01:49:29;2.40;99.90
17146;DHT22;8688;54.444;18.444;2022-12-07T01:52:03;2.40;99.90
17146;DHT22;8688;54.444;18.444;2022-12-07T01:54:35;2.40;99.90
17146;DHT22;8688;54.444;18.444;2022-12-07T01:57:03;2.40;99.90
17146;DHT22;8688;54.444;18.444;2022-12-07T01:59:32;2.40;99.90
17146;DHT22;8688;54.444;18.444;2022-12-07T02:02:02;2.40;99.90
17146;DHT22;8688;54.444;18.444;2022-12-07T02:04:32;2.40;99.90
17146;DHT22;8688;54.444;18.444;2022-12-07T02:07:00;2.40;99.90
17146;DHT22;8688;54.444;18.444;2022-12-07T02:09:29;2.40;99.90
17146;DHT22;8688;54.444;18.444;2022-12-07T02:11:57;2.40;99.90
17146;DHT22;8688;54.444;18.444;2022-12-07T02:14:25;2.40;99.90
17146;DHT22;8688;54.444;18.444;2022-12-07T02:17:03;2.40;99.90
17146;DHT22;8688;54.444;18.444;2022-12-07T02:26:22;2.50;99.90
17146;DHT22;8688;54.444;18.444;2022-12-07T02:29:11;2.50;99.90
17146;DHT22;8688;54.444;18.444;2022-12-07T02:31:44;2.50;99.90
17146;DHT22;8688;54.444;18.444;2022-12-07T02:34:21;2.50;99.90
17146;DHT22;8688;54.444;18.444;2022-12-07T02:36:55;2.50;99.90
17146;DHT22;8688;54.444;18.444;2022-12-07T02:39:30;2.50;99.90
17146;DHT22;8688;54.444;18.444;2022-12-07T02:42:09;2.40;99.90
17146;DHT22;8688;54.444;18.444;2022-12-07T02:44:41;2.40;99.90
17146;DHT22;8688;54.444;18.444;2022-12-07T02:47:12;2.50;99.90
17146;DHT22;8688;54.444;18.444;2022-12-07T02:49:41;2.50;99.90
17146;DHT22;8688;54.444;18.444;2022-12-07T02:52:09;2.40;99.90
17146;DHT22;8688;54.444;18.444;2022-12-07T02:54:36;2.40;99.90
17146;DHT22;8688;54.444;18.444;2022-12-07T02:57:15;2.50;99.90
17146;DHT22;8688;54.444;18.444;2022-12-07T02:59:57;2.50;99.90
17146;DHT22;8688;54.444;18.444;2022-12-07T03:02:34;2.50;99.90
17146;DHT22;8688;54.444;18.444;2022-12-07T03:05:24;2.50;99.90
17146;DHT22;8688;54.444;18.444;2022-12-07T03:08:00;2.50;99.90
17146;DHT22;8688;54.444;18.444;2022-12-07T03:10:36;2.50;99.90
17146;DHT22;8688;54.444;18.444;2022-12-07T03:13:11;2.50;99.90
17146;DHT22;8688;54.444;18.444;2022-12-07T03:15:46;2.50;99.90
17146;DHT22;8688;54.444;18.444;2022-12-07T03:18:20;2.50;99.90
17146;DHT22;8688;54.444;18.444;2022-12-07T03:20:50;2.50;99.90
17146;DHT22;8688;54.444;18.444;2022-12-07T03:23:20;2.50;99.90
17146;DHT22;8688;54.444;18.444;2022-12-07T03:25:50;2.50;99.90
17146;DHT22;8688;54.444;18.444;2022-12-07T03:28:22;2.50;99.90
17146;DHT22;8688;54.444;18.444;2022-12-07T03:30:56;2.50;99.90
17146;DHT22;8688;54.444;18.444;2022-12-07T03:33:28;2.50;99.90
17146;DHT22;8688;54.444;18.444;2022-12-07T03:36:01;2.50;99.90
17146;DHT22;8688;54.444;18.444;2022-12-07T03:38:35;2.50;99.90
17146;DHT22;8688;54.444;18.444;2022-12-07T03:41:07;2.60;99.90
17146;DHT22;8688;54.444;18.444;2022-12-07T03:43:36;2.60;99.90
17146;DHT22;8688;54.444;18.444;2022-12-07T03:46:11;2.60;99.90
17146;DHT22;8688;54.444;18.444;2022-12-07T03:48:48;2.60;99.90
17146;DHT22;8688;54.444;18.444;2022-12-07T03:51:22;2.60;99.90
17146;DHT22;8688;54.444;18.444;2022-12-07T03:53:57;2.60;99.90
17146;DHT22;8688;54.444;18.444;2022-12-07T03:56:26;2.60;99.90
17146;DHT22;8688;54.444;18.444;2022-12-07T03:58:55;2.60;99.90
17146;DHT22;8688;54.444;18.444;2022-12-07T04:01:24;2.60;99.90
17146;DHT22;8688;54.444;18.444;2022-12-07T04:03:52;2.60;99.90
17146;DHT22;8688;54.444;18.444;2022-12-07T04:06:19;2.60;99.90
17146;DHT22;8688;54.444;18.444;2022-12-07T04:08:47;2.60;99.90
17146;DHT22;8688;54.444;18.444;2022-12-07T04:11:14;2.60;99.90
17146;DHT22;8688;54.444;18.444;2022-12-07T04:13:42;2.70;99.90
17146;DHT22;8688;54.444;18.444;2022-12-07T04:16:36;2.70;99.90
17146;DHT22;8688;54.444;18.444;2022-12-07T04:19:04;2.70;99.90
17146;DHT22;8688;54.444;18.444;2022-12-07T04:21:31;2.70;99.90
17146;DHT22;8688;54.444;18.444;2022-12-07T04:23:59;2.70;99.90
17146;DHT22;8688;54.444;18.444;2022-12-07T04:26:26;2.70;99.90
17146;DHT22;8688;54.444;18.444;2022-12-07T04:28:54;2.70;99.90
17146;DHT22;8688;54.444;18.444;2022-12-07T04:31:21;2.70;99.90
17146;DHT22;8688;54.444;18.444;2022-12-07T04:33:50;2.70;99.90
17146;DHT22;8688;54.444;18.444;2022-12-07T04:36:18;2.70;99.90
17146;DHT22;8688;54.444;18.444;2022-12-07T04:38:46;2.80;99.90
17146;DHT22;8688;54.444;18.444;2022-12-07T04:41:13;2.80;99.90
17146;DHT22;8688;54.444;18.444;2022-12-07T04:43:41;2.80;99.90
17146;DHT22;8688;54.444;18.444;2022-12-07T04:46:09;2.80;99.90
17146;DHT22;8688;54.444;18.444;2022-12-07T04:48:36;2.80;99.90
17146;DHT22;8688;54.444;18.444;2022-12-07T04:51:05;2.80;99.90
17146;DHT22;8688;54.444;18.444;2022-12-07T04:53:33;2.80;99.90
17146;DHT22;8688;54.444;18.444;2022-12-07T04:56:00;2.80;99.90
17146;DHT22;8688;54.444;18.444;2022-12-07T04:58:28;2.80;99.90
17146;DHT22;8688;54.444;18.444;2022-12-07T05:00:55;2.80;99.90
17146;DHT22;8688;54.444;18.444;2022-12-07T05:03:23;2.80;99.90
17146;DHT22;8688;54.444;18.444;2022-12-07T05:05:50;2.80;99.90
17146;DHT22;8688;54.444;18.444;2022-12-07T05:08:19;2.90;99.90
17146;DHT22;8688;54.444;18.444;2022-12-07T05:10:48;2.80;99.90
17146;DHT22;8688;54.444;18.444;2022-12-07T05:13:16;2.80;99.90
17146;DHT22;8688;54.444;18.444;2022-12-07T05:15:43;2.90;99.90
17146;DHT22;8688;54.444;18.444;2022-12-07T05:18:11;2.90;99.90
17146;DHT22;8688;54.444;18.444;2022-12-07T05:20:39;2.90;99.90
17146;DHT22;8688;54.444;18.444;2022-12-07T05:23:06;2.90;99.90
17146;DHT22;8688;54.444;18.444;2022-12-07T05:25:35;2.90;99.90
17146;DHT22;8688;54.444;18.444;2022-12-07T05:28:03;2.80;99.90
17146;DHT22;8688;54.444;18.444;2022-12-07T05:30:31;2.80;99.90
17146;DHT22;8688;54.444;18.444;2022-12-07T05:32:59;2.80;99.90
17146;DHT22;8688;54.444;18.444;2022-12-07T05:35:26;2.80;99.90
17146;DHT22;8688;54.444;18.444;2022-12-07T05:37:54;2.80;99.90
17146;DHT22;8688;54.444;18.444;2022-12-07T05:40:21;2.80;99.90
17146;DHT22;8688;54.444;18.444;2022-12-07T05:42:50;2.80;99.90
17146;DHT22;8688;54.444;18.444;2022-12-07T05:45:18;2.80;99.90
17146;DHT22;8688;54.444;18.444;2022-12-07T05:47:45;2.80;99.90
17146;DHT22;8688;54.444;18.444;2022-12-07T05:50:13;2.80;99.90
17146;DHT22;8688;54.444;18.444;2022-12-07T05:52:40;2.80;99.90
17146;DHT22;8688;54.444;18.444;2022-12-07T05:55:08;2.80;99.90
17146;DHT22;8688;54.444;18.444;2022-12-07T05:57:35;2.80;99.90
17146;DHT22;8688;54.444;18.444;2022-12-07T06:00:05;2.80;99.90
17146;DHT22;8688;54.444;18.444;2022-12-07T06:02:32;2.80;99.90
17146;DHT22;8688;54.444;18.444;2022-12-07T06:04:59;2.80;99.90
17146;DHT22;8688;54.444;18.444;2022-12-07T06:07:27;2.70;99.90
17146;DHT22;8688;54.444;18.444;2022-12-07T06:09:54;2.70;99.90
17146;DHT22;8688;54.444;18.444;2022-12-07T06:12:22;2.70;99.90
17146;DHT22;8688;54.444;18.444;2022-12-07T06:15:00;2.70;99.90
17146;DHT22;8688;54.444;18.444;2022-12-07T06:17:29;2.70;99.90
17146;DHT22;8688;54.444;18.444;2022-12-07T06:19:57;2.70;99.90
17146;DHT22;8688;54.444;18.444;2022-12-07T06:22:24;2.70;99.90
17146;DHT22;8688;54.444;18.444;2022-12-07T06:24:51;2.60;99.90
17146;DHT22;8688;54.444;18.444;2022-12-07T06:27:19;2.60;99.90
17146;DHT22;8688;54.444;18.444;2022-12-07T06:29:47;2.60;99.90
17146;DHT22;8688;54.444;18.444;2022-12-07T06:32:15;2.60;99.90
17146;DHT22;8688;54.444;18.444;2022-12-07T06:34:44;2.70;99.90
17146;DHT22;8688;54.444;18.444;2022-12-07T06:37:13;2.60;99.90
17146;DHT22;8688;54.444;18.444;2022-12-07T06:39:40;2.60;99.90
17146;DHT22;8688;54.444;18.444;2022-12-07T06:42:08;2.50;99.90
17146;DHT22;8688;54.444;18.444;2022-12-07T06:44:35;2.40;99.90
17146;DHT22;8688;54.444;18.444;2022-12-07T06:47:03;2.40;99.90
17146;DHT22;8688;54.444;18.444;2022-12-07T06:49:31;2.40;99.90
17146;DHT22;8688;54.444;18.444;2022-12-07T06:52:00;2.40;99.90
17146;DHT22;8688;54.444;18.444;2022-12-07T06:54:27;2.40;99.90
17146;DHT22;8688;54.444;18.444;2022-12-07T06:56:56;2.40;99.90
17146;DHT22;8688;54.444;18.444;2022-12-07T06:59:23;2.30;99.90
17146;DHT22;8688;54.444;18.444;2022-12-07T07:01:51;2.30;99.90
17146;DHT22;8688;54.444;18.444;2022-12-07T07:04:18;2.30;99.90
17146;DHT22;8688;54.444;18.444;2022-12-07T07:06:46;2.30;99.90
17146;DHT22;8688;54.444;18.444;2022-12-07T07:09:15;2.30;99.90
17146;DHT22;8688;54.444;18.444;2022-12-07T07:11:42;2.40;99.90
17146;DHT22;8688;54.444;18.444;2022-12-07T07:14:10;2.40;99.90
17146;DHT22;8688;54.444;18.444;2022-12-07T07:16:37;2.40;99.90
17146;DHT22;8688;54.444;18.444;2022-12-07T07:19:05;2.40;99.90
17146;DHT22;8688;54.444;18.444;2022-12-07T07:21:32;2.40;99.90
17146;DHT22;8688;54.444;18.444;2022-12-07T07:24:00;2.40;99.90
17146;DHT22;8688;54.444;18.444;2022-12-07T07:26:28;2.40;99.90
17146;DHT22;8688;54.444;18.444;2022-12-07T07:28:56;2.40;99.90
17146;DHT22;8688;54.444;18.444;2022-12-07T07:31:23;2.40;99.90
17146;DHT22;8688;54.444;18.444;2022-12-07T07:33:51;2.40;99.90
17146;DHT22;8688;54.444;18.444;2022-12-07T07:36:18;2.40;99.90
17146;DHT22;8688;54.444;18.444;2022-12-07T07:38:46;2.40;99.90
17146;DHT22;8688;54.444;18.444;2022-12-07T07:41:13;2.40;99.90
17146;DHT22;8688;54.444;18.444;2022-12-07T07:43:42;2.40;99.90
17146;DHT22;8688;54.444;18.444;2022-12-07T07:46:09;2.40;99.90
17146;DHT22;8688;54.444;18.444;2022-12-07T07:48:37;2.40;99.90
17146;DHT22;8688;54.444;18.444;2022-12-07T07:51:05;2.40;99.90
17146;DHT22;8688;54.444;18.444;2022-12-07T07:53:33;2.50;99.90
17146;DHT22;8688;54.444;18.444;2022-12-07T07:56:01;2.50;99.90
17146;DHT22;8688;54.444;18.444;2022-12-07T07:58:29;2.50;99.90
17146;DHT22;8688;54.444;18.444;2022-12-07T08:01:03;2.50;99.90
17146;DHT22;8688;54.444;18.444;2022-12-07T08:03:31;2.50;99.90
17146;DHT22;8688;54.444;18.444;2022-12-07T08:05:58;2.60;99.90
17146;DHT22;8688;54.444;18.444;2022-12-07T08:08:26;2.60;99.90
17146;DHT22;8688;54.444;18.444;2022-12-07T08:10:53;2.60;99.90
17146;DHT22;8688;54.444;18.444;2022-12-07T08:13:21;2.70;99.90
17146;DHT22;8688;54.444;18.444;2022-12-07T08:15:48;2.70;99.90
17146;DHT22;8688;54.444;18.444;2022-12-07T08:18:17;2.70;99.90
17146;DHT22;8688;54.444;18.444;2022-12-07T08:20:45;2.70;99.90
17146;DHT22;8688;54.444;18.444;2022-12-07T08:23:12;2.70;99.90
17146;DHT22;8688;54.444;18.444;2022-12-07T08:25:40;2.70;99.90
17146;DHT22;8688;54.444;18.444;2022-12-07T08:28:07;2.70;99.90
17146;DHT22;8688;54.444;18.444;2022-12-07T08:30:35;2.70;99.90
17146;DHT22;8688;54.444;18.444;2022-12-07T08:33:02;2.70;99.90
17146;DHT22;8688;54.444;18.444;2022-12-07T08:35:32;2.70;99.90
17146;DHT22;8688;54.444;18.444;2022-12-07T08:38:00;2.70;99.90
17146;DHT22;8688;54.444;18.444;2022-12-07T08:40:28;2.70;99.90
17146;DHT22;8688;54.444;18.444;2022-12-07T08:42:56;2.70;99.90
17146;DHT22;8688;54.444;18.444;2022-12-07T08:45:23;2.70;99.90
17146;DHT22;8688;54.444;18.444;2022-12-07T08:47:54;2.80;99.90
17146;DHT22;8688;54.444;18.444;2022-12-07T08:50:23;2.80;99.90
17146;DHT22;8688;54.444;18.444;2022-12-07T08:52:55;2.80;99.90
17146;DHT22;8688;54.444;18.444;2022-12-07T08:55:24;2.80;99.90
17146;DHT22;8688;54.444;18.444;2022-12-07T08:57:52;2.80;99.90
17146;DHT22;8688;54.444;18.444;2022-12-07T09:00:19;2.70;99.90
17146;DHT22;8688;54.444;18.444;2022-12-07T09:02:47;2.80;99.90
17146;DHT22;8688;54.444;18.444;2022-12-07T09:05:15;2.80;99.90
17146;DHT22;8688;54.444;18.444;2022-12-07T09:07:43;2.80;99.90
17146;DHT22;8688;54.444;18.444;2022-12-07T09:10:14;2.70;99.90
17146;DHT22;8688;54.444;18.444;2022-12-07T09:12:42;2.80;99.90
17146;DHT22;8688;54.444;18.444;2022-12-07T09:15:09;2.70;99.90
17146;DHT22;8688;54.444;18.444;2022-12-07T09:17:37;2.80;99.90
17146;DHT22;8688;54.444;18.444;2022-12-07T09:20:05;2.80;99.90
17146;DHT22;8688;54.444;18.444;2022-12-07T09:22:33;2.80;99.90
17146;DHT22;8688;54.444;18.444;2022-12-07T09:25:01;2.80;99.90
17146;DHT22;8688;54.444;18.444;2022-12-07T09:27:30;2.80;99.90
17146;DHT22;8688;54.444;18.444;2022-12-07T09:29:58;2.70;99.90
17146;DHT22;8688;54.444;18.444;2022-12-07T09:32:25;2.70;99.90
17146;DHT22;8688;54.444;18.444;2022-12-07T09:34:53;2.70;99.90
17146;DHT22;8688;54.444;18.444;2022-12-07T09:37:21;2.70;99.90
17146;DHT22;8688;54.444;18.444;2022-12-07T09:39:49;2.60;99.90
17146;DHT22;8688;54.444;18.444;2022-12-07T09:42:26;2.70;99.90
17146;DHT22;8688;54.444;18.444;2022-12-07T09:44:56;2.60;99.90
17146;DHT22;8688;54.444;18.444;2022-12-07T09:47:25;2.60;99.90
17146;DHT22;8688;54.444;18.444;2022-12-07T09:49:54;2.60;99.90
17146;DHT22;8688;54.444;18.444;2022-12-07T09:52:27;2.60;99.90
17146;DHT22;8688;54.444;18.444;2022-12-07T09:54:55;2.60;99.90
17146;DHT22;8688;54.444;18.444;2022-12-07T09:57:28;2.60;99.90
17146;DHT22;8688;54.444;18.444;2022-12-07T10:00:03;2.60;99.90
17146;DHT22;8688;54.444;18.444;2022-12-07T10:02:36;2.60;99.90
17146;DHT22;8688;54.444;18.444;2022-12-07T10:05:06;2.60;99.90
17146;DHT22;8688;54.444;18.444;2022-12-07T10:07:34;2.60;99.90
17146;DHT22;8688;54.444;18.444;2022-12-07T10:10:03;2.60;99.90
17146;DHT22;8688;54.444;18.444;2022-12-07T10:12:56;2.50;99.90
17146;DHT22;8688;54.444;18.444;2022-12-07T10:15:42;2.50;99.90
17146;DHT22;8688;54.444;18.444;2022-12-07T10:18:25;2.60;99.90
17146;DHT22;8688;54.444;18.444;2022-12-07T10:21:05;2.60;99.90
17146;DHT22;8688;54.444;18.444;2022-12-07T10:23:35;2.60;99.90
17146;DHT22;8688;54.444;18.444;2022-12-07T10:26:19;2.50;99.90
17146;DHT22;8688;54.444;18.444;2022-12-07T10:28:47;2.50;99.90
17146;DHT22;8688;54.444;18.444;2022-12-07T10:31:19;2.60;99.90
17146;DHT22;8688;54.444;18.444;2022-12-07T10:33:50;2.60;99.90
17146;DHT22;8688;54.444;18.444;2022-12-07T10:36:21;2.60;99.90
17146;DHT22;8688;54.444;18.444;2022-12-07T10:38:51;2.60;99.90
17146;DHT22;8688;54.444;18.444;2022-12-07T10:41:18;2.60;99.90
17146;DHT22;8688;54.444;18.444;2022-12-07T10:43:48;2.60;99.90
17146;DHT22;8688;54.444;18.444;2022-12-07T10:46:52;2.50;99.90
17146;DHT22;8688;54.444;18.444;2022-12-07T10:49:58;2.50;99.90
17146;DHT22;8688;54.444;18.444;2022-12-07T10:52:44;2.50;99.90
17146;DHT22;8688;54.444;18.444;2022-12-07T10:55:21;2.50;99.90
17146;DHT22;8688;54.444;18.444;2022-12-07T10:58:12;2.50;99.90
17146;DHT22;8688;54.444;18.444;2022-12-07T11:00:56;2.50;99.90
17146;DHT22;8688;54.444;18.444;2022-12-07T11:03:37;2.50;99.90
17146;DHT22;8688;54.444;18.444;2022-12-07T11:06:16;2.50;99.90
17146;DHT22;8688;54.444;18.444;2022-12-07T11:08:57;2.50;99.90
17146;DHT22;8688;54.444;18.444;2022-12-07T11:11:33;2.50;99.90
17146;DHT22;8688;54.444;18.444;2022-12-07T11:14:09;2.50;99.90
17146;DHT22;8688;54.444;18.444;2022-12-07T11:16:50;2.40;99.90
17146;DHT22;8688;54.444;18.444;2022-12-07T11:19:43;2.40;99.90
17146;DHT22;8688;54.444;18.444;2022-12-07T11:22:20;2.40;99.90
17146;DHT22;8688;54.444;18.444;2022-12-07T11:24:53;2.40;99.90
17146;DHT22;8688;54.444;18.444;2022-12-07T11:27:29;2.40;99.90
17146;DHT22;8688;54.444;18.444;2022-12-07T11:30:10;2.50;99.90
17146;DHT22;8688;54.444;18.444;2022-12-07T11:33:09;2.50;99.90
17146;DHT22;8688;54.444;18.444;2022-12-07T11:35:49;2.50;99.90
17146;DHT22;8688;54.444;18.444;2022-12-07T11:38:26;2.50;99.90
17146;DHT22;8688;54.444;18.444;2022-12-07T11:40:58;2.50;99.90
17146;DHT22;8688;54.444;18.444;2022-12-07T11:43:49;2.50;99.90
17146;DHT22;8688;54.444;18.444;2022-12-07T11:46:17;2.50;99.90
17146;DHT22;8688;54.444;18.444;2022-12-07T11:48:49;2.50;99.90
17146;DHT22;8688;54.444;18.444;2022-12-07T11:51:21;2.50;91.80
17146;DHT22;8688;54.444;18.444;2022-12-07T11:53:53;2.40;99.90
17146;DHT22;8688;54.444;18.444;2022-12-07T11:56:22;2.50;99.90
17146;DHT22;8688;54.444;18.444;2022-12-07T11:58:55;2.50;99.90
17146;DHT22;8688;54.444;18.444;2022-12-07T12:01:35;2.40;99.70
17146;DHT22;8688;54.444;18.444;2022-12-07T12:04:16;2.40;90.10
17146;DHT22;8688;54.444;18.444;2022-12-07T12:06:47;2.30;98.20
17146;DHT22;8688;54.444;18.444;2022-12-07T12:09:16;2.30;99.90
17146;DHT22;8688;54.444;18.444;2022-12-07T12:11:56;2.30;99.90
17146;DHT22;8688;54.444;18.444;2022-12-07T12:14:45;2.20;99.90
17146;DHT22;8688;54.444;18.444;2022-12-07T12:17:39;2.30;99.90
17146;DHT22;8688;54.444;18.444;2022-12-07T12:20:19;2.20;99.90
17146;DHT22;8688;54.444;18.444;2022-12-07T12:22:53;2.30;99.90
17146;DHT22;8688;54.444;18.444;2022-12-07T12:25:26;2.30;99.90
17146;DHT22;8688;54.444;18.444;2022-12-07T12:27:57;2.30;99.90
17146;DHT22;8688;54.444;18.444;2022-12-07T12:30:33;2.30;99.90
17146;DHT22;8688;54.444;18.444;2022-12-07T12:33:06;2.30;99.90
17146;DHT22;8688;54.444;18.444;2022-12-07T12:35:35;2.30;99.90
17146;DHT22;8688;54.444;18.444;2022-12-07T12:38:30;2.30;99.90
17146;DHT22;8688;54.444;18.444;2022-12-07T12:41:00;2.30;99.90
17146;DHT22;8688;54.444;18.444;2022-12-07T12:43:47;2.30;99.90
17146;DHT22;8688;54.444;18.444;2022-12-07T12:46:51;2.30;99.90
17146;DHT22;8688;54.444;18.444;2022-12-07T12:52:50;2.30;99.90
17146;DHT22;8688;54.444;18.444;2022-12-07T12:58:48;2.30;99.90
17146;DHT22;8688;54.444;18.444;2022-12-07T13:01:43;2.30;98.20
17146;DHT22;8688;54.444;18.444;2022-12-07T13:04:34;2.30;97.20
17146;DHT22;8688;54.444;18.444;2022-12-07T13:07:08;2.30;99.90
17146;DHT22;8688;54.444;18.444;2022-12-07T13:09:36;2.30;99.90
17146;DHT22;8688;54.444;18.444;2022-12-07T13:12:14;2.30;99.90
17146;DHT22;8688;54.444;18.444;2022-12-07T13:14:55;2.30;99.90
17146;DHT22;8688;54.444;18.444;2022-12-07T13:20:49;2.30;99.90
17146;DHT22;8688;54.444;18.444;2022-12-07T13:23:26;2.30;99.90
17146;DHT22;8688;54.444;18.444;2022-12-07T13:28:43;2.30;99.90
17146;DHT22;8688;54.444;18.444;2022-12-07T13:31:32;2.30;99.90
17146;DHT22;8688;54.444;18.444;2022-12-07T13:34:01;2.30;99.90
17146;DHT22;8688;54.444;18.444;2022-12-07T13:36:31;2.30;92.70
17146;DHT22;8688;54.444;18.444;2022-12-07T13:39:16;2.20;88.60
17146;DHT22;8688;54.444;18.444;2022-12-07T13:41:48;2.20;91.80
17146;DHT22;8688;54.444;18.444;2022-12-07T13:44:19;2.20;90.20
17146;DHT22;8688;54.444;18.444;2022-12-07T13:47:04;2.20;79.60
17146;DHT22;8688;54.444;18.444;2022-12-07T13:49:37;2.20;31.00
17146;DHT22;8688;54.444;18.444;2022-12-07T13:52:18;2.20;23.90
17146;DHT22;8688;54.444;18.444;2022-12-07T13:54:48;2.20;27.10
17146;DHT22;8688;54.444;18.444;2022-12-07T13:57:16;2.20;30.40
17146;DHT22;8688;54.444;18.444;2022-12-07T13:59:45;2.10;1.00
17146;DHT22;8688;54.444;18.444;2022-12-07T14:02:22;2.20;15.80
17146;DHT22;8688;54.444;18.444;2022-12-07T14:04:51;2.10;17.90
17146;DHT22;8688;54.444;18.444;2022-12-07T14:07:22;2.20;22.80
17146;DHT22;8688;54.444;18.444;2022-12-07T14:10:00;2.10;9.50
17146;DHT22;8688;54.444;18.444;2022-12-07T14:12:29;2.10;14.60
17146;DHT22;8688;54.444;18.444;2022-12-07T14:15:00;2.10;21.90
17146;DHT22;8688;54.444;18.444;2022-12-07T14:17:28;2.10;7.50
17146;DHT22;8688;54.444;18.444;2022-12-07T14:19:56;2.10;26.10
17146;DHT22;8688;54.444;18.444;2022-12-07T14:22:30;2.10;40.00
17146;DHT22;8688;54.444;18.444;2022-12-07T14:25:00;2.10;51.90
17146;DHT22;8688;54.444;18.444;2022-12-07T14:27:32;2.00;66.30
17146;DHT22;8688;54.444;18.444;2022-12-07T14:30:04;2.00;60.50
17146;DHT22;8688;54.444;18.444;2022-12-07T14:32:35;2.00;93.60
17146;DHT22;8688;54.444;18.444;2022-12-07T14:35:08;2.00;99.90
17146;DHT22;8688;54.444;18.444;2022-12-07T14:37:38;2.00;99.90
17146;DHT22;8688;54.444;18.444;2022-12-07T14:40:06;2.00;99.90
17146;DHT22;8688;54.444;18.444;2022-12-07T14:42:34;2.00;99.90
17146;DHT22;8688;54.444;18.444;2022-12-07T14:45:05;2.00;99.90
17146;DHT22;8688;54.444;18.444;2022-12-07T14:47:34;2.00;99.90
17146;DHT22;8688;54.444;18.444;2022-12-07T14:50:02;2.00;96.60
17146;DHT22;8688;54.444;18.444;2022-12-07T14:52:29;2.00;99.90
17146;DHT22;8688;54.444;18.444;2022-12-07T14:54:57;2.00;94.00
17146;DHT22;8688;54.444;18.444;2022-12-07T14:57:24;2.00;95.40
17146;DHT22;8688;54.444;18.444;2022-12-07T14:59:52;2.00;97.60
17146;DHT22;8688;54.444;18.444;2022-12-07T15:02:21;1.90;89.90
17146;DHT22;8688;54.444;18.444;2022-12-07T15:04:48;1.90;89.30
17146;DHT22;8688;54.444;18.444;2022-12-07T15:07:20;1.90;82.00
17146;DHT22;8688;54.444;18.444;2022-12-07T15:09:48;1.90;72.50
17146;DHT22;8688;54.444;18.444;2022-12-07T15:12:16;1.80;57.10
17146;DHT22;8688;54.444;18.444;2022-12-07T15:14:43;1.80;56.90
17146;DHT22;8688;54.444;18.444;2022-12-07T15:17:11;1.80;55.50
17146;DHT22;8688;54.444;18.444;2022-12-07T15:19:40;1.70;91.90
17146;DHT22;8688;54.444;18.444;2022-12-07T15:22:08;1.70;74.60
17146;DHT22;8688;54.444;18.444;2022-12-07T15:24:37;1.70;93.20
17146;DHT22;8688;54.444;18.444;2022-12-07T15:27:04;1.70;95.20
17146;DHT22;8688;54.444;18.444;2022-12-07T15:29:32;1.70;99.90
17146;DHT22;8688;54.444;18.444;2022-12-07T15:31:59;1.70;99.90
17146;DHT22;8688;54.444;18.444;2022-12-07T15:34:28;1.70;99.90
17146;DHT22;8688;54.444;18.444;2022-12-07T15:36:58;1.70;99.90
17146;DHT22;8688;54.444;18.444;2022-12-07T15:39:25;1.70;99.90
17146;DHT22;8688;54.444;18.444;2022-12-07T15:41:53;1.70;99.90
17146;DHT22;8688;54.444;18.444;2022-12-07T15:44:20;1.60;92.40
17146;DHT22;8688;54.444;18.444;2022-12-07T15:47:05;1.70;70.40
17146;DHT22;8688;54.444;18.444;2022-12-07T15:49:33;1.70;70.40
17146;DHT22;8688;54.444;18.444;2022-12-07T15:52:02;1.70;92.90
17146;DHT22;8688;54.444;18.444;2022-12-07T15:54:30;1.70;99.90
17146;DHT22;8688;54.444;18.444;2022-12-07T15:56:58;1.60;99.90
17146;DHT22;8688;54.444;18.444;2022-12-07T15:59:26;1.60;99.90
17146;DHT22;8688;54.444;18.444;2022-12-07T16:01:54;1.70;99.90
17146;DHT22;8688;54.444;18.444;2022-12-07T16:04:22;1.70;99.90
17146;DHT22;8688;54.444;18.444;2022-12-07T16:06:49;1.70;96.70
17146;DHT22;8688;54.444;18.444;2022-12-07T16:09:19;1.70;99.10
17146;DHT22;8688;54.444;18.444;2022-12-07T16:11:47;1.70;97.00
17146;DHT22;8688;54.444;18.444;2022-12-07T16:14:16;1.70;91.50
17146;DHT22;8688;54.444;18.444;2022-12-07T16:16:43;1.70;97.20
17146;DHT22;8688;54.444;18.444;2022-12-07T16:19:11;1.60;99.90
17146;DHT22;8688;54.444;18.444;2022-12-07T16:21:38;1.60;99.90
17146;DHT22;8688;54.444;18.444;2022-12-07T16:24:07;1.60;99.90
17146;DHT22;8688;54.444;18.444;2022-12-07T16:26:38;1.60;99.90
17146;DHT22;8688;54.444;18.444;2022-12-07T16:29:06;1.60;99.90
17146;DHT22;8688;54.444;18.444;2022-12-07T16:31:34;1.60;99.90